Terminal Aerodrome Forecast
Issued by NWS Caribou, ME

Home | Current Version | Previous Version | Text Only | Print | Product List | Glossary On
Versions: 1 2 3 4 5 6 7 8 9 10 11 12 13 14
000
FTUS41 KCAR 160500
TAFBGR
TAF
KBGR 160523Z 1606/1706 00000KT P6SM SCT045 BKN100
     FM161200 VRB03KT P6SM -SHRA OVC035
     FM161800 20006KT P6SM BKN035
     FM162000 20007KT P6SM BKN040
     FM162300 VRB03KT P6SM FEW050 SCT100
     FM170300 VRB02KT 3SM BR SCT250=

USA.gov is the U.S. government's official web portal to all federal, state and local government web resources and services.